sensor_id;sensor_type;location;lat;lon;timestamp;P1;durP1;ratioP1;P2;durP2;ratioP2
944;SDS011;459;48.676;9.034;2023-08-01T00:02:07;7.00;;;4.57;;
944;SDS011;459;48.676;9.034;2023-08-01T00:04:32;4.30;;;3.90;;
944;SDS011;459;48.676;9.034;2023-08-01T00:06:57;4.00;;;3.27;;
944;SDS011;459;48.676;9.034;2023-08-01T00:09:22;5.70;;;3.37;;
944;SDS011;459;48.676;9.034;2023-08-01T00:11:47;3.60;;;3.27;;
944;SDS011;459;48.676;9.034;2023-08-01T00:14:13;3.13;;;2.87;;
944;SDS011;459;48.676;9.034;2023-08-01T00:16:38;6.30;;;3.37;;
944;SDS011;459;48.676;9.034;2023-08-01T00:19:03;6.27;;;3.70;;
944;SDS011;459;48.676;9.034;2023-08-01T00:21:28;4.70;;;3.30;;
944;SDS011;459;48.676;9.034;2023-08-01T00:23:55;4.67;;;3.33;;
944;SDS011;459;48.676;9.034;2023-08-01T00:26:21;6.53;;;3.50;;
944;SDS011;459;48.676;9.034;2023-08-01T00:28:46;4.60;;;3.40;;
944;SDS011;459;48.676;9.034;2023-08-01T00:31:11;3.80;;;3.20;;
944;SDS011;459;48.676;9.034;2023-08-01T00:33:36;5.07;;;3.90;;
944;SDS011;459;48.676;9.034;2023-08-01T00:36:02;4.23;;;3.83;;
944;SDS011;459;48.676;9.034;2023-08-01T00:38:27;4.93;;;3.10;;
944;SDS011;459;48.676;9.034;2023-08-01T00:40:52;4.20;;;3.80;;
944;SDS011;459;48.676;9.034;2023-08-01T00:43:20;5.77;;;3.97;;
944;SDS011;459;48.676;9.034;2023-08-01T00:45:46;7.97;;;4.40;;
944;SDS011;459;48.676;9.034;2023-08-01T00:48:11;5.90;;;3.50;;
944;SDS011;459;48.676;9.034;2023-08-01T00:50:36;5.43;;;4.10;;
944;SDS011;459;48.676;9.034;2023-08-01T00:53:02;4.83;;;3.47;;
944;SDS011;459;48.676;9.034;2023-08-01T00:55:27;4.40;;;3.43;;
944;SDS011;459;48.676;9.034;2023-08-01T00:57:54;5.43;;;3.10;;
944;SDS011;459;48.676;9.034;2023-08-01T01:00:19;4.07;;;3.30;;
944;SDS011;459;48.676;9.034;2023-08-01T01:02:44;5.13;;;3.90;;
944;SDS011;459;48.676;9.034;2023-08-01T01:05:09;4.60;;;2.87;;
944;SDS011;459;48.676;9.034;2023-08-01T01:07:34;7.30;;;4.67;;
944;SDS011;459;48.676;9.034;2023-08-01T01:10:00;5.90;;;3.67;;
944;SDS011;459;48.676;9.034;2023-08-01T01:12:25;6.60;;;3.77;;
944;SDS011;459;48.676;9.034;2023-08-01T01:14:51;5.10;;;3.60;;
944;SDS011;459;48.676;9.034;2023-08-01T01:17:16;4.53;;;3.97;;
944;SDS011;459;48.676;9.034;2023-08-01T01:19:41;5.83;;;4.00;;
944;SDS011;459;48.676;9.034;2023-08-01T01:22:06;5.10;;;3.97;;
944;SDS011;459;48.676;9.034;2023-08-01T01:24:32;7.63;;;4.10;;
944;SDS011;459;48.676;9.034;2023-08-01T01:26:58;6.83;;;3.57;;
944;SDS011;459;48.676;9.034;2023-08-01T01:29:25;5.13;;;3.90;;
944;SDS011;459;48.676;9.034;2023-08-01T01:31:51;4.60;;;3.87;;
944;SDS011;459;48.676;9.034;2023-08-01T01:34:16;6.77;;;3.43;;
944;SDS011;459;48.676;9.034;2023-08-01T01:36:42;7.60;;;4.03;;
944;SDS011;459;48.676;9.034;2023-08-01T01:39:07;4.47;;;3.43;;
944;SDS011;459;48.676;9.034;2023-08-01T01:41:32;6.87;;;4.40;;
944;SDS011;459;48.676;9.034;2023-08-01T01:43:57;5.20;;;4.40;;
944;SDS011;459;48.676;9.034;2023-08-01T01:46:22;5.67;;;3.63;;
944;SDS011;459;48.676;9.034;2023-08-01T01:48:47;6.03;;;4.17;;
944;SDS011;459;48.676;9.034;2023-08-01T01:51:13;4.60;;;3.60;;
944;SDS011;459;48.676;9.034;2023-08-01T01:53:38;6.60;;;4.93;;
944;SDS011;459;48.676;9.034;2023-08-01T01:56:03;7.07;;;4.10;;
944;SDS011;459;48.676;9.034;2023-08-01T01:58:29;4.47;;;3.87;;
944;SDS011;459;48.676;9.034;2023-08-01T02:00:54;8.67;;;4.00;;
944;SDS011;459;48.676;9.034;2023-08-01T02:03:19;6.53;;;4.43;;
944;SDS011;459;48.676;9.034;2023-08-01T02:05:44;5.00;;;4.20;;
944;SDS011;459;48.676;9.034;2023-08-01T02:08:09;6.47;;;4.20;;
944;SDS011;459;48.676;9.034;2023-08-01T02:10:35;6.63;;;3.77;;
944;SDS011;459;48.676;9.034;2023-08-01T02:13:00;4.30;;;3.90;;
944;SDS011;459;48.676;9.034;2023-08-01T02:15:25;5.37;;;4.30;;
944;SDS011;459;48.676;9.034;2023-08-01T02:17:50;4.30;;;3.47;;
944;SDS011;459;48.676;9.034;2023-08-01T02:20:15;4.43;;;3.63;;
944;SDS011;459;48.676;9.034;2023-08-01T02:22:41;5.03;;;4.50;;
944;SDS011;459;48.676;9.034;2023-08-01T02:25:06;3.97;;;3.47;;
944;SDS011;459;48.676;9.034;2023-08-01T02:27:31;5.60;;;3.73;;
944;SDS011;459;48.676;9.034;2023-08-01T02:29:56;6.50;;;3.97;;
944;SDS011;459;48.676;9.034;2023-08-01T02:32:21;6.20;;;3.77;;
944;SDS011;459;48.676;9.034;2023-08-01T02:34:47;5.63;;;3.80;;
944;SDS011;459;48.676;9.034;2023-08-01T02:37:12;5.00;;;3.97;;
944;SDS011;459;48.676;9.034;2023-08-01T02:39:37;8.00;;;3.93;;
944;SDS011;459;48.676;9.034;2023-08-01T02:42:03;3.80;;;3.50;;
944;SDS011;459;48.676;9.034;2023-08-01T02:44:28;5.00;;;3.63;;
944;SDS011;459;48.676;9.034;2023-08-01T02:46:54;4.67;;;3.70;;
944;SDS011;459;48.676;9.034;2023-08-01T02:49:19;10.33;;;4.83;;
944;SDS011;459;48.676;9.034;2023-08-01T02:51:44;6.60;;;4.30;;
944;SDS011;459;48.676;9.034;2023-08-01T02:54:09;3.80;;;3.33;;
944;SDS011;459;48.676;9.034;2023-08-01T02:56:34;6.70;;;3.70;;
944;SDS011;459;48.676;9.034;2023-08-01T02:59:00;5.80;;;3.33;;
944;SDS011;459;48.676;9.034;2023-08-01T03:01:25;4.47;;;3.77;;
944;SDS011;459;48.676;9.034;2023-08-01T03:03:50;5.20;;;3.73;;
944;SDS011;459;48.676;9.034;2023-08-01T03:06:15;4.10;;;3.13;;
944;SDS011;459;48.676;9.034;2023-08-01T03:08:40;3.60;;;3.30;;
944;SDS011;459;48.676;9.034;2023-08-01T03:11:06;6.10;;;3.60;;
944;SDS011;459;48.676;9.034;2023-08-01T03:13:31;4.43;;;3.07;;
944;SDS011;459;48.676;9.034;2023-08-01T03:15:56;3.90;;;3.57;;
944;SDS011;459;48.676;9.034;2023-08-01T03:18:21;7.40;;;3.87;;
944;SDS011;459;48.676;9.034;2023-08-01T03:20:46;5.33;;;3.20;;
944;SDS011;459;48.676;9.034;2023-08-01T03:23:11;3.60;;;2.50;;
944;SDS011;459;48.676;9.034;2023-08-01T03:25:37;4.27;;;3.47;;
944;SDS011;459;48.676;9.034;2023-08-01T03:28:03;4.37;;;3.70;;
944;SDS011;459;48.676;9.034;2023-08-01T03:30:28;4.07;;;3.40;;
944;SDS011;459;48.676;9.034;2023-08-01T03:32:54;4.00;;;3.50;;
944;SDS011;459;48.676;9.034;2023-08-01T03:35:19;5.20;;;3.37;;
944;SDS011;459;48.676;9.034;2023-08-01T03:37:44;4.47;;;2.83;;
944;SDS011;459;48.676;9.034;2023-08-01T03:40:09;6.87;;;3.67;;
944;SDS011;459;48.676;9.034;2023-08-01T03:42:35;3.37;;;2.93;;
944;SDS011;459;48.676;9.034;2023-08-01T03:45:01;4.50;;;3.70;;
944;SDS011;459;48.676;9.034;2023-08-01T03:47:26;5.90;;;3.77;;
944;SDS011;459;48.676;9.034;2023-08-01T03:49:51;4.53;;;3.33;;
944;SDS011;459;48.676;9.034;2023-08-01T03:52:16;4.73;;;3.20;;
944;SDS011;459;48.676;9.034;2023-08-01T03:54:41;6.37;;;5.40;;
944;SDS011;459;48.676;9.034;2023-08-01T03:57:06;3.43;;;3.00;;
944;SDS011;459;48.676;9.034;2023-08-01T03:59:32;5.83;;;3.67;;
944;SDS011;459;48.676;9.034;2023-08-01T04:01:57;5.03;;;3.23;;
944;SDS011;459;48.676;9.034;2023-08-01T04:04:22;4.97;;;3.13;;
944;SDS011;459;48.676;9.034;2023-08-01T04:06:47;7.10;;;4.23;;
944;SDS011;459;48.676;9.034;2023-08-01T04:09:13;5.57;;;3.00;;
944;SDS011;459;48.676;9.034;2023-08-01T04:11:38;4.10;;;3.30;;
944;SDS011;459;48.676;9.034;2023-08-01T04:14:03;7.60;;;4.00;;
944;SDS011;459;48.676;9.034;2023-08-01T04:16:28;4.50;;;3.87;;
944;SDS011;459;48.676;9.034;2023-08-01T04:18:53;5.07;;;2.90;;
944;SDS011;459;48.676;9.034;2023-08-01T04:21:18;3.10;;;2.80;;
944;SDS011;459;48.676;9.034;2023-08-01T04:23:44;4.40;;;4.00;;
944;SDS011;459;48.676;9.034;2023-08-01T04:26:09;4.83;;;3.60;;
944;SDS011;459;48.676;9.034;2023-08-01T04:28:34;4.47;;;3.83;;
944;SDS011;459;48.676;9.034;2023-08-01T04:31:00;7.00;;;3.30;;
944;SDS011;459;48.676;9.034;2023-08-01T04:33:25;6.40;;;3.87;;
944;SDS011;459;48.676;9.034;2023-08-01T04:35:50;7.80;;;3.83;;
944;SDS011;459;48.676;9.034;2023-08-01T04:38:16;3.43;;;2.97;;
944;SDS011;459;48.676;9.034;2023-08-01T04:40:41;4.23;;;2.70;;
944;SDS011;459;48.676;9.034;2023-08-01T04:43:06;6.97;;;3.17;;
944;SDS011;459;48.676;9.034;2023-08-01T04:45:31;4.03;;;2.93;;
944;SDS011;459;48.676;9.034;2023-08-01T04:47:56;6.60;;;3.17;;
944;SDS011;459;48.676;9.034;2023-08-01T04:50:21;3.40;;;2.97;;
944;SDS011;459;48.676;9.034;2023-08-01T04:52:47;4.77;;;2.57;;
944;SDS011;459;48.676;9.034;2023-08-01T04:55:12;5.07;;;3.37;;
944;SDS011;459;48.676;9.034;2023-08-01T04:57:37;6.50;;;4.20;;
944;SDS011;459;48.676;9.034;2023-08-01T05:00:03;4.30;;;3.00;;
944;SDS011;459;48.676;9.034;2023-08-01T05:02:28;3.70;;;3.17;;
944;SDS011;459;48.676;9.034;2023-08-01T05:04:54;4.27;;;2.93;;
944;SDS011;459;48.676;9.034;2023-08-01T05:07:19;5.23;;;3.47;;
944;SDS011;459;48.676;9.034;2023-08-01T05:09:44;4.40;;;3.27;;
944;SDS011;459;48.676;9.034;2023-08-01T05:12:09;4.13;;;2.77;;
944;SDS011;459;48.676;9.034;2023-08-01T05:14:34;6.50;;;3.03;;
944;SDS011;459;48.676;9.034;2023-08-01T05:17:00;6.37;;;3.50;;
944;SDS011;459;48.676;9.034;2023-08-01T05:19:25;6.43;;;3.63;;
944;SDS011;459;48.676;9.034;2023-08-01T05:21:50;5.93;;;4.07;;
944;SDS011;459;48.676;9.034;2023-08-01T05:24:15;5.57;;;4.13;;
944;SDS011;459;48.676;9.034;2023-08-01T05:26:40;7.00;;;4.67;;
944;SDS011;459;48.676;9.034;2023-08-01T05:29:06;5.33;;;4.10;;
944;SDS011;459;48.676;9.034;2023-08-01T05:31:31;5.43;;;3.80;;
944;SDS011;459;48.676;9.034;2023-08-01T05:33:56;4.87;;;3.60;;
944;SDS011;459;48.676;9.034;2023-08-01T05:36:21;4.10;;;3.57;;
944;SDS011;459;48.676;9.034;2023-08-01T05:38:46;4.90;;;3.40;;
944;SDS011;459;48.676;9.034;2023-08-01T05:41:11;5.30;;;4.37;;
944;SDS011;459;48.676;9.034;2023-08-01T05:43:37;4.80;;;3.73;;
944;SDS011;459;48.676;9.034;2023-08-01T05:46:02;4.20;;;3.50;;
944;SDS011;459;48.676;9.034;2023-08-01T05:48:27;7.57;;;5.20;;
944;SDS011;459;48.676;9.034;2023-08-01T05:50:52;5.43;;;3.83;;
944;SDS011;459;48.676;9.034;2023-08-01T05:53:20;7.17;;;3.87;;
944;SDS011;459;48.676;9.034;2023-08-01T05:55:45;5.77;;;3.93;;
944;SDS011;459;48.676;9.034;2023-08-01T05:58:10;5.20;;;3.70;;
944;SDS011;459;48.676;9.034;2023-08-01T06:00:36;5.80;;;4.13;;
944;SDS011;459;48.676;9.034;2023-08-01T06:03:01;5.20;;;4.00;;
944;SDS011;459;48.676;9.034;2023-08-01T06:05:26;4.40;;;3.20;;
944;SDS011;459;48.676;9.034;2023-08-01T06:07:51;6.03;;;4.03;;
944;SDS011;459;48.676;9.034;2023-08-01T06:10:17;6.60;;;4.00;;
944;SDS011;459;48.676;9.034;2023-08-01T06:12:42;5.30;;;3.30;;
944;SDS011;459;48.676;9.034;2023-08-01T06:15:07;3.63;;;2.70;;
944;SDS011;459;48.676;9.034;2023-08-01T06:17:32;4.13;;;2.53;;
944;SDS011;459;48.676;9.034;2023-08-01T06:19:58;4.97;;;3.10;;
944;SDS011;459;48.676;9.034;2023-08-01T06:22:23;3.73;;;3.37;;
944;SDS011;459;48.676;9.034;2023-08-01T06:24:48;4.03;;;3.10;;
944;SDS011;459;48.676;9.034;2023-08-01T06:27:13;4.27;;;3.40;;
944;SDS011;459;48.676;9.034;2023-08-01T06:29:40;4.53;;;4.13;;
944;SDS011;459;48.676;9.034;2023-08-01T06:32:05;5.80;;;4.20;;
944;SDS011;459;48.676;9.034;2023-08-01T06:34:30;6.43;;;3.63;;
944;SDS011;459;48.676;9.034;2023-08-01T06:36:55;5.00;;;3.50;;
944;SDS011;459;48.676;9.034;2023-08-01T06:39:21;4.93;;;4.00;;
944;SDS011;459;48.676;9.034;2023-08-01T06:41:46;4.80;;;4.33;;
944;SDS011;459;48.676;9.034;2023-08-01T06:44:11;6.07;;;4.43;;
944;SDS011;459;48.676;9.034;2023-08-01T06:46:36;5.40;;;4.63;;
944;SDS011;459;48.676;9.034;2023-08-01T06:49:01;6.20;;;4.47;;
944;SDS011;459;48.676;9.034;2023-08-01T06:51:26;5.97;;;4.90;;
944;SDS011;459;48.676;9.034;2023-08-01T06:53:52;5.57;;;3.90;;
944;SDS011;459;48.676;9.034;2023-08-01T06:56:17;6.67;;;4.70;;
944;SDS011;459;48.676;9.034;2023-08-01T06:58:42;7.00;;;5.10;;
944;SDS011;459;48.676;9.034;2023-08-01T07:01:07;7.00;;;4.40;;
944;SDS011;459;48.676;9.034;2023-08-01T07:03:32;5.37;;;3.53;;
944;SDS011;459;48.676;9.034;2023-08-01T07:05:57;5.63;;;4.17;;
944;SDS011;459;48.676;9.034;2023-08-01T07:08:23;7.00;;;4.73;;
944;SDS011;459;48.676;9.034;2023-08-01T07:10:48;6.00;;;4.40;;
944;SDS011;459;48.676;9.034;2023-08-01T07:13:13;6.50;;;4.97;;
944;SDS011;459;48.676;9.034;2023-08-01T07:15:38;2.93;;;2.43;;
944;SDS011;459;48.676;9.034;2023-08-01T07:18:04;4.63;;;3.70;;
944;SDS011;459;48.676;9.034;2023-08-01T07:20:29;5.63;;;4.63;;
944;SDS011;459;48.676;9.034;2023-08-01T07:22:54;8.20;;;3.90;;
944;SDS011;459;48.676;9.034;2023-08-01T07:25:19;5.70;;;4.70;;
944;SDS011;459;48.676;9.034;2023-08-01T07:27:45;7.00;;;4.47;;
944;SDS011;459;48.676;9.034;2023-08-01T07:30:10;4.10;;;2.57;;
944;SDS011;459;48.676;9.034;2023-08-01T07:32:36;6.57;;;3.70;;
944;SDS011;459;48.676;9.034;2023-08-01T07:35:03;6.70;;;4.50;;
944;SDS011;459;48.676;9.034;2023-08-01T07:37:28;3.80;;;3.30;;
944;SDS011;459;48.676;9.034;2023-08-01T07:39:55;7.50;;;4.37;;
944;SDS011;459;48.676;9.034;2023-08-01T07:42:20;4.33;;;3.43;;
944;SDS011;459;48.676;9.034;2023-08-01T07:44:45;5.53;;;4.00;;
944;SDS011;459;48.676;9.034;2023-08-01T07:47:10;4.13;;;2.90;;
944;SDS011;459;48.676;9.034;2023-08-01T07:49:35;2.70;;;2.30;;
944;SDS011;459;48.676;9.034;2023-08-01T07:52:00;4.20;;;3.17;;
944;SDS011;459;48.676;9.034;2023-08-01T07:54:26;3.40;;;3.10;;
944;SDS011;459;48.676;9.034;2023-08-01T07:56:51;2.87;;;2.57;;
944;SDS011;459;48.676;9.034;2023-08-01T07:59:16;3.50;;;3.10;;
944;SDS011;459;48.676;9.034;2023-08-01T08:01:41;3.70;;;2.03;;
944;SDS011;459;48.676;9.034;2023-08-01T08:04:06;4.10;;;3.30;;
944;SDS011;459;48.676;9.034;2023-08-01T08:06:32;5.33;;;3.17;;
944;SDS011;459;48.676;9.034;2023-08-01T08:08:57;7.13;;;3.30;;
944;SDS011;459;48.676;9.034;2023-08-01T08:11:22;3.43;;;2.63;;
944;SDS011;459;48.676;9.034;2023-08-01T08:13:48;4.10;;;3.50;;
944;SDS011;459;48.676;9.034;2023-08-01T08:16:13;6.23;;;4.13;;
944;SDS011;459;48.676;9.034;2023-08-01T08:18:38;3.90;;;3.03;;
944;SDS011;459;48.676;9.034;2023-08-01T08:21:04;4.87;;;3.90;;
944;SDS011;459;48.676;9.034;2023-08-01T08:23:29;5.40;;;3.80;;
944;SDS011;459;48.676;9.034;2023-08-01T08:25:54;5.10;;;3.37;;
944;SDS011;459;48.676;9.034;2023-08-01T08:28:29;7.07;;;4.33;;
944;SDS011;459;48.676;9.034;2023-08-01T08:30:55;3.90;;;3.37;;
944;SDS011;459;48.676;9.034;2023-08-01T08:33:20;5.57;;;4.63;;
944;SDS011;459;48.676;9.034;2023-08-01T08:35:46;5.70;;;3.77;;
944;SDS011;459;48.676;9.034;2023-08-01T08:38:11;4.17;;;3.63;;
944;SDS011;459;48.676;9.034;2023-08-01T08:40:37;3.80;;;2.93;;
944;SDS011;459;48.676;9.034;2023-08-01T08:43:05;4.30;;;3.50;;
944;SDS011;459;48.676;9.034;2023-08-01T08:45:33;6.10;;;4.40;;
944;SDS011;459;48.676;9.034;2023-08-01T08:48:00;4.20;;;3.40;;
944;SDS011;459;48.676;9.034;2023-08-01T08:50:25;4.77;;;3.07;;
944;SDS011;459;48.676;9.034;2023-08-01T08:52:51;4.87;;;3.30;;
944;SDS011;459;48.676;9.034;2023-08-01T08:55:16;6.70;;;3.27;;
944;SDS011;459;48.676;9.034;2023-08-01T08:57:42;5.20;;;3.43;;
944;SDS011;459;48.676;9.034;2023-08-01T09:00:09;3.40;;;3.07;;
944;SDS011;459;48.676;9.034;2023-08-01T09:02:35;3.70;;;3.10;;
944;SDS011;459;48.676;9.034;2023-08-01T09:05:01;3.93;;;2.83;;
944;SDS011;459;48.676;9.034;2023-08-01T09:07:27;4.13;;;3.73;;
944;SDS011;459;48.676;9.034;2023-08-01T09:09:54;4.90;;;2.67;;
944;SDS011;459;48.676;9.034;2023-08-01T09:12:19;3.10;;;2.80;;
944;SDS011;459;48.676;9.034;2023-08-01T09:14:45;3.20;;;2.10;;
944;SDS011;459;48.676;9.034;2023-08-01T09:17:11;3.20;;;2.27;;
944;SDS011;459;48.676;9.034;2023-08-01T09:19:39;3.20;;;1.73;;
944;SDS011;459;48.676;9.034;2023-08-01T09:22:13;2.03;;;1.83;;
944;SDS011;459;48.676;9.034;2023-08-01T09:24:39;1.93;;;1.73;;
944;SDS011;459;48.676;9.034;2023-08-01T09:27:04;2.03;;;1.87;;
944;SDS011;459;48.676;9.034;2023-08-01T09:29:30;3.13;;;1.90;;
944;SDS011;459;48.676;9.034;2023-08-01T09:31:56;2.50;;;1.70;;
944;SDS011;459;48.676;9.034;2023-08-01T09:34:22;1.67;;;1.20;;
944;SDS011;459;48.676;9.034;2023-08-01T09:36:48;4.83;;;1.77;;
944;SDS011;459;48.676;9.034;2023-08-01T09:39:17;2.70;;;1.50;;
944;SDS011;459;48.676;9.034;2023-08-01T09:41:43;1.30;;;1.20;;
944;SDS011;459;48.676;9.034;2023-08-01T09:44:15;1.20;;;1.10;;
944;SDS011;459;48.676;9.034;2023-08-01T09:46:40;1.70;;;1.07;;
944;SDS011;459;48.676;9.034;2023-08-01T09:49:10;1.73;;;1.33;;
944;SDS011;459;48.676;9.034;2023-08-01T09:51:45;1.20;;;1.10;;
944;SDS011;459;48.676;9.034;2023-08-01T09:54:11;0.80;;;0.70;;
944;SDS011;459;48.676;9.034;2023-08-01T09:56:36;0.70;;;0.70;;
944;SDS011;459;48.676;9.034;2023-08-01T09:59:01;0.50;;;0.50;;
944;SDS011;459;48.676;9.034;2023-08-01T10:01:27;0.87;;;0.63;;
944;SDS011;459;48.676;9.034;2023-08-01T10:03:53;0.90;;;0.80;;
944;SDS011;459;48.676;9.034;2023-08-01T10:06:19;1.10;;;1.00;;
944;SDS011;459;48.676;9.034;2023-08-01T10:08:45;1.40;;;0.80;;
944;SDS011;459;48.676;9.034;2023-08-01T10:11:11;1.10;;;0.90;;
944;SDS011;459;48.676;9.034;2023-08-01T10:13:36;0.60;;;0.60;;
944;SDS011;459;48.676;9.034;2023-08-01T10:16:02;1.40;;;1.17;;
944;SDS011;459;48.676;9.034;2023-08-01T10:18:28;0.87;;;0.70;;
944;SDS011;459;48.676;9.034;2023-08-01T10:20:54;1.77;;;0.97;;
944;SDS011;459;48.676;9.034;2023-08-01T10:23:19;1.07;;;0.63;;
944;SDS011;459;48.676;9.034;2023-08-01T10:25:45;1.73;;;0.90;;
944;SDS011;459;48.676;9.034;2023-08-01T10:28:10;0.80;;;0.80;;
944;SDS011;459;48.676;9.034;2023-08-01T10:30:35;1.63;;;1.20;;
944;SDS011;459;48.676;9.034;2023-08-01T10:33:00;0.93;;;0.83;;
944;SDS011;459;48.676;9.034;2023-08-01T10:35:35;1.17;;;0.63;;
944;SDS011;459;48.676;9.034;2023-08-01T10:38:04;1.23;;;1.10;;
944;SDS011;459;48.676;9.034;2023-08-01T10:40:48;0.90;;;0.60;;
944;SDS011;459;48.676;9.034;2023-08-01T10:43:19;1.00;;;0.57;;
944;SDS011;459;48.676;9.034;2023-08-01T10:45:46;1.80;;;0.70;;
944;SDS011;459;48.676;9.034;2023-08-01T10:48:11;1.03;;;0.80;;
944;SDS011;459;48.676;9.034;2023-08-01T10:50:36;1.20;;;0.73;;
944;SDS011;459;48.676;9.034;2023-08-01T10:53:03;1.07;;;0.80;;
944;SDS011;459;48.676;9.034;2023-08-01T10:55:37;0.93;;;0.80;;
944;SDS011;459;48.676;9.034;2023-08-01T10:58:03;0.90;;;0.67;;
944;SDS011;459;48.676;9.034;2023-08-01T11:00:29;1.37;;;0.87;;
944;SDS011;459;48.676;9.034;2023-08-01T11:02:54;2.00;;;0.70;;
944;SDS011;459;48.676;9.034;2023-08-01T11:05:20;0.97;;;0.80;;
944;SDS011;459;48.676;9.034;2023-08-01T11:07:55;1.73;;;1.27;;
944;SDS011;459;48.676;9.034;2023-08-01T11:10:21;2.37;;;0.90;;
944;SDS011;459;48.676;9.034;2023-08-01T11:12:46;1.00;;;0.80;;
944;SDS011;459;48.676;9.034;2023-08-01T11:15:13;0.80;;;0.80;;
944;SDS011;459;48.676;9.034;2023-08-01T11:17:39;2.33;;;1.00;;
944;SDS011;459;48.676;9.034;2023-08-01T11:20:05;2.10;;;1.00;;
944;SDS011;459;48.676;9.034;2023-08-01T11:22:31;1.20;;;0.90;;
944;SDS011;459;48.676;9.034;2023-08-01T11:24:56;1.33;;;1.17;;
944;SDS011;459;48.676;9.034;2023-08-01T11:27:21;1.83;;;1.40;;
944;SDS011;459;48.676;9.034;2023-08-01T11:29:46;1.50;;;0.90;;
944;SDS011;459;48.676;9.034;2023-08-01T11:32:12;1.60;;;1.30;;
944;SDS011;459;48.676;9.034;2023-08-01T11:34:40;0.90;;;0.70;;
944;SDS011;459;48.676;9.034;2023-08-01T11:37:06;1.50;;;1.10;;
944;SDS011;459;48.676;9.034;2023-08-01T11:39:31;1.47;;;1.13;;
944;SDS011;459;48.676;9.034;2023-08-01T11:41:57;1.50;;;1.20;;
944;SDS011;459;48.676;9.034;2023-08-01T11:44:25;1.67;;;0.90;;
944;SDS011;459;48.676;9.034;2023-08-01T11:46:50;0.90;;;0.63;;
944;SDS011;459;48.676;9.034;2023-08-01T11:49:15;1.10;;;0.80;;
944;SDS011;459;48.676;9.034;2023-08-01T11:51:44;1.27;;;1.10;;
944;SDS011;459;48.676;9.034;2023-08-01T11:54:10;1.97;;;1.17;;
944;SDS011;459;48.676;9.034;2023-08-01T11:56:36;1.70;;;1.17;;
944;SDS011;459;48.676;9.034;2023-08-01T11:59:08;1.30;;;1.00;;
944;SDS011;459;48.676;9.034;2023-08-01T12:01:37;1.20;;;0.93;;
944;SDS011;459;48.676;9.034;2023-08-01T12:04:02;2.67;;;1.20;;
944;SDS011;459;48.676;9.034;2023-08-01T12:06:30;2.10;;;1.07;;
944;SDS011;459;48.676;9.034;2023-08-01T12:08:55;2.03;;;1.13;;
944;SDS011;459;48.676;9.034;2023-08-01T12:11:30;1.17;;;0.87;;
944;SDS011;459;48.676;9.034;2023-08-01T12:14:09;1.73;;;1.10;;
944;SDS011;459;48.676;9.034;2023-08-01T12:16:35;2.17;;;1.17;;
944;SDS011;459;48.676;9.034;2023-08-01T12:19:00;1.97;;;1.00;;
944;SDS011;459;48.676;9.034;2023-08-01T12:21:25;1.23;;;1.00;;
944;SDS011;459;48.676;9.034;2023-08-01T12:23:50;1.23;;;0.90;;
944;SDS011;459;48.676;9.034;2023-08-01T12:26:16;2.17;;;1.43;;
944;SDS011;459;48.676;9.034;2023-08-01T12:28:41;1.20;;;0.90;;
944;SDS011;459;48.676;9.034;2023-08-01T12:31:06;1.77;;;1.53;;
944;SDS011;459;48.676;9.034;2023-08-01T12:33:32;1.40;;;1.23;;
944;SDS011;459;48.676;9.034;2023-08-01T12:35:58;2.30;;;1.30;;
944;SDS011;459;48.676;9.034;2023-08-01T12:38:23;3.70;;;1.20;;
944;SDS011;459;48.676;9.034;2023-08-01T12:40:49;1.63;;;1.20;;
944;SDS011;459;48.676;9.034;2023-08-01T12:43:14;1.37;;;1.23;;
944;SDS011;459;48.676;9.034;2023-08-01T12:45:39;3.27;;;1.50;;
944;SDS011;459;48.676;9.034;2023-08-01T12:48:05;1.20;;;1.00;;
944;SDS011;459;48.676;9.034;2023-08-01T12:50:30;3.17;;;1.53;;
944;SDS011;459;48.676;9.034;2023-08-01T12:52:55;2.40;;;1.47;;
944;SDS011;459;48.676;9.034;2023-08-01T12:55:20;1.47;;;1.13;;
944;SDS011;459;48.676;9.034;2023-08-01T12:57:45;3.00;;;1.17;;
944;SDS011;459;48.676;9.034;2023-08-01T13:00:11;3.00;;;1.23;;
944;SDS011;459;48.676;9.034;2023-08-01T13:02:36;2.23;;;1.40;;
944;SDS011;459;48.676;9.034;2023-08-01T13:05:02;1.60;;;1.50;;
944;SDS011;459;48.676;9.034;2023-08-01T13:07:27;2.00;;;1.30;;
944;SDS011;459;48.676;9.034;2023-08-01T13:09:52;1.90;;;1.40;;
944;SDS011;459;48.676;9.034;2023-08-01T13:12:18;1.73;;;1.27;;
944;SDS011;459;48.676;9.034;2023-08-01T13:14:43;2.93;;;1.00;;
944;SDS011;459;48.676;9.034;2023-08-01T13:17:08;1.47;;;1.17;;
944;SDS011;459;48.676;9.034;2023-08-01T13:19:33;2.87;;;1.30;;
944;SDS011;459;48.676;9.034;2023-08-01T13:21:58;1.13;;;1.03;;
944;SDS011;459;48.676;9.034;2023-08-01T13:24:24;1.50;;;1.03;;
944;SDS011;459;48.676;9.034;2023-08-01T13:26:49;2.33;;;1.37;;
944;SDS011;459;48.676;9.034;2023-08-01T13:29:14;2.40;;;1.67;;
944;SDS011;459;48.676;9.034;2023-08-01T13:31:39;1.70;;;1.50;;
944;SDS011;459;48.676;9.034;2023-08-01T13:34:04;2.00;;;1.40;;
944;SDS011;459;48.676;9.034;2023-08-01T13:36:30;1.40;;;1.30;;
944;SDS011;459;48.676;9.034;2023-08-01T13:38:55;1.67;;;1.47;;
944;SDS011;459;48.676;9.034;2023-08-01T13:41:20;2.47;;;1.40;;
944;SDS011;459;48.676;9.034;2023-08-01T13:43:45;1.40;;;0.90;;
944;SDS011;459;48.676;9.034;2023-08-01T13:46:14;1.70;;;1.30;;
944;SDS011;459;48.676;9.034;2023-08-01T13:48:40;1.40;;;1.10;;
944;SDS011;459;48.676;9.034;2023-08-01T13:51:06;1.73;;;1.17;;
944;SDS011;459;48.676;9.034;2023-08-01T13:53:31;1.20;;;0.97;;
944;SDS011;459;48.676;9.034;2023-08-01T13:55:56;1.57;;;1.40;;
944;SDS011;459;48.676;9.034;2023-08-01T13:58:21;2.13;;;1.53;;
944;SDS011;459;48.676;9.034;2023-08-01T14:00:46;2.33;;;1.37;;
944;SDS011;459;48.676;9.034;2023-08-01T14:03:12;1.50;;;1.20;;
944;SDS011;459;48.676;9.034;2023-08-01T14:05:37;2.57;;;1.23;;
944;SDS011;459;48.676;9.034;2023-08-01T14:08:02;1.23;;;1.03;;
944;SDS011;459;48.676;9.034;2023-08-01T14:10:27;1.40;;;1.20;;
944;SDS011;459;48.676;9.034;2023-08-01T14:12:52;1.60;;;1.50;;
944;SDS011;459;48.676;9.034;2023-08-01T14:15:18;1.53;;;1.10;;
944;SDS011;459;48.676;9.034;2023-08-01T14:17:43;1.80;;;1.20;;
944;SDS011;459;48.676;9.034;2023-08-01T14:20:08;2.40;;;1.37;;
944;SDS011;459;48.676;9.034;2023-08-01T14:22:34;1.40;;;1.23;;
944;SDS011;459;48.676;9.034;2023-08-01T14:24:59;2.10;;;1.40;;
944;SDS011;459;48.676;9.034;2023-08-01T14:27:24;1.70;;;1.10;;
944;SDS011;459;48.676;9.034;2023-08-01T14:29:49;1.63;;;1.10;;
944;SDS011;459;48.676;9.034;2023-08-01T14:32:17;1.73;;;1.20;;
944;SDS011;459;48.676;9.034;2023-08-01T14:34:42;1.57;;;1.47;;
944;SDS011;459;48.676;9.034;2023-08-01T14:37:08;1.80;;;1.47;;
944;SDS011;459;48.676;9.034;2023-08-01T14:39:33;1.67;;;0.90;;
944;SDS011;459;48.676;9.034;2023-08-01T14:41:58;2.20;;;1.30;;
944;SDS011;459;48.676;9.034;2023-08-01T14:44:23;1.40;;;1.20;;
944;SDS011;459;48.676;9.034;2023-08-01T14:46:48;1.97;;;1.40;;
944;SDS011;459;48.676;9.034;2023-08-01T14:49:13;2.00;;;1.50;;
944;SDS011;459;48.676;9.034;2023-08-01T14:51:39;1.43;;;1.20;;
944;SDS011;459;48.676;9.034;2023-08-01T14:54:04;1.77;;;1.30;;
944;SDS011;459;48.676;9.034;2023-08-01T14:56:30;2.20;;;1.27;;
944;SDS011;459;48.676;9.034;2023-08-01T14:58:55;1.80;;;1.03;;
944;SDS011;459;48.676;9.034;2023-08-01T15:01:21;1.40;;;1.00;;
944;SDS011;459;48.676;9.034;2023-08-01T15:03:47;2.30;;;1.40;;
944;SDS011;459;48.676;9.034;2023-08-01T15:06:12;2.27;;;1.27;;
944;SDS011;459;48.676;9.034;2023-08-01T15:08:40;1.90;;;1.70;;
944;SDS011;459;48.676;9.034;2023-08-01T15:11:05;1.77;;;1.10;;
944;SDS011;459;48.676;9.034;2023-08-01T15:13:31;3.50;;;2.40;;
944;SDS011;459;48.676;9.034;2023-08-01T15:15:56;2.10;;;1.30;;
944;SDS011;459;48.676;9.034;2023-08-01T15:18:22;1.77;;;1.17;;
944;SDS011;459;48.676;9.034;2023-08-01T15:20:47;1.47;;;1.03;;
944;SDS011;459;48.676;9.034;2023-08-01T15:23:12;1.80;;;1.23;;
944;SDS011;459;48.676;9.034;2023-08-01T15:25:37;1.97;;;1.47;;
944;SDS011;459;48.676;9.034;2023-08-01T15:28:02;2.57;;;1.43;;
944;SDS011;459;48.676;9.034;2023-08-01T15:30:27;1.50;;;0.97;;
944;SDS011;459;48.676;9.034;2023-08-01T15:32:53;3.10;;;1.17;;
944;SDS011;459;48.676;9.034;2023-08-01T15:35:18;1.50;;;1.27;;